createdAt,value
2022-11-07T00:01:11.694Z,87.81
2022-11-07T00:03:38.008Z,87.89
2022-11-07T00:06:04.341Z,88.27
2022-11-07T00:08:30.676Z,88.42
2022-11-07T00:10:56.997Z,88.57
2022-11-07T00:13:23.325Z,88.46
2022-11-07T00:15:49.670Z,88.25
2022-11-07T00:18:16.011Z,88.30
2022-11-07T00:20:42.366Z,88.37
2022-11-07T00:23:08.685Z,88.55
2022-11-07T00:25:35.018Z,88.63
2022-11-07T00:28:01.340Z,88.62
2022-11-07T00:30:27.680Z,88.93
2022-11-07T00:32:59.023Z,89.05
2022-11-07T00:35:20.342Z,88.98
2022-11-07T00:37:46.662Z,89.05
2022-11-07T00:40:13.005Z,88.95
2022-11-07T00:42:39.343Z,89.04
2022-11-07T00:45:05.684Z,89.08
2022-11-07T00:47:32.035Z,89.23
2022-11-07T00:49:58.357Z,89.40
2022-11-07T00:52:24.718Z,89.77
2022-11-07T00:54:51.035Z,90.12
2022-11-07T00:57:17.361Z,90.23
2022-11-07T00:59:43.679Z,90.34
2022-11-07T01:02:10.154Z,90.54
2022-11-07T01:04:36.345Z,90.81
2022-11-07T01:07:02.666Z,91.11
2022-11-07T01:09:29.003Z,91.31
2022-11-07T01:11:55.342Z,91.45
2022-11-07T01:14:21.671Z,91.25
2022-11-07T01:16:48.014Z,91.27
2022-11-07T01:19:14.355Z,91.29
2022-11-07T01:21:40.677Z,91.11
2022-11-07T01:24:07.007Z,90.97
2022-11-07T01:26:33.342Z,90.92
2022-11-07T01:28:59.697Z,91.22
2022-11-07T01:31:26.057Z,91.42
2022-11-07T01:33:52.376Z,91.70
2022-11-07T01:36:18.708Z,92.20
2022-11-07T01:38:45.061Z,92.75
2022-11-07T01:41:11.383Z,93.27
2022-11-07T01:43:37.708Z,93.73
2022-11-07T01:46:04.048Z,93.77
2022-11-07T01:48:30.365Z,93.90
2022-11-07T01:50:56.706Z,94.12
2022-11-07T01:53:23.053Z,94.47
2022-11-07T01:55:49.371Z,94.68
2022-11-07T01:58:15.725Z,94.73
2022-11-07T02:00:42.064Z,94.86
2022-11-07T02:03:08.430Z,94.67
2022-11-07T02:05:34.786Z,94.23
2022-11-07T02:08:01.088Z,94.15
2022-11-07T02:10:27.414Z,94.36
2022-11-07T02:12:53.739Z,94.33
2022-11-07T02:15:20.116Z,94.10
2022-11-07T02:17:46.444Z,93.67
2022-11-07T02:20:12.762Z,93.40
2022-11-07T02:22:39.142Z,93.53
2022-11-07T02:25:05.479Z,93.81
2022-11-07T02:27:31.820Z,93.93
2022-11-07T02:29:58.194Z,94.13
2022-11-07T02:32:24.514Z,94.13
2022-11-07T02:34:50.857Z,94.23
2022-11-07T02:37:17.234Z,94.24
2022-11-07T02:39:43.570Z,94.36
2022-11-07T02:42:09.884Z,94.72
2022-11-07T02:44:36.212Z,94.94
2022-11-07T02:47:02.525Z,95.25
2022-11-07T02:49:28.848Z,95.29
2022-11-07T02:51:55.230Z,95.26
2022-11-07T02:54:21.610Z,95.13
2022-11-07T02:56:47.909Z,95.12
2022-11-07T02:59:14.296Z,95.30
2022-11-07T03:01:40.650Z,95.37
2022-11-07T03:04:06.921Z,95.29
2022-11-07T03:06:33.275Z,95.14
2022-11-07T03:08:59.598Z,94.91
2022-11-07T03:11:25.938Z,94.96
2022-11-07T03:13:52.320Z,95.26
2022-11-07T03:16:18.658Z,95.44
2022-11-07T03:18:44.999Z,95.34
2022-11-07T03:21:11.316Z,95.25
2022-11-07T03:23:37.708Z,95.11
2022-11-07T03:26:04.013Z,94.81
2022-11-07T03:28:30.351Z,94.27
2022-11-07T03:30:56.692Z,94.06
2022-11-07T03:33:23.012Z,94.07
2022-11-07T03:35:49.354Z,94.09
2022-11-07T03:38:15.697Z,94.01
2022-11-07T03:40:42.030Z,93.89
2022-11-07T03:43:08.377Z,93.93
2022-11-07T03:45:34.717Z,93.74
2022-11-07T03:48:01.067Z,93.75
2022-11-07T03:50:27.381Z,93.77
2022-11-07T03:52:53.755Z,93.72
2022-11-07T03:55:20.068Z,93.70
2022-11-07T03:57:46.393Z,93.62
2022-11-07T04:00:12.772Z,93.71
2022-11-07T04:02:39.273Z,93.87
2022-11-07T04:05:05.426Z,93.99
2022-11-07T04:07:31.768Z,94.18
2022-11-07T04:09:58.107Z,94.35
2022-11-07T04:12:24.425Z,94.37
2022-11-07T04:14:50.769Z,94.46
2022-11-07T04:17:17.112Z,94.56
2022-11-07T04:19:43.458Z,94.69
2022-11-07T04:22:09.812Z,94.88
2022-11-07T04:24:37.492Z,95.06
2022-11-07T04:27:02.469Z,95.26
2022-11-07T04:29:28.815Z,95.39
2022-11-07T04:31:55.136Z,95.49
2022-11-07T04:34:21.477Z,95.47
2022-11-07T04:36:47.843Z,95.36
2022-11-07T04:39:14.158Z,95.18
2022-11-07T04:41:40.482Z,95.01
2022-11-07T04:44:06.803Z,94.94
2022-11-07T04:46:33.131Z,94.98
2022-11-07T04:48:59.469Z,95.02
2022-11-07T04:51:25.793Z,94.96
2022-11-07T04:53:52.112Z,94.94
2022-11-07T04:56:18.458Z,94.81
2022-11-07T04:58:44.793Z,94.76
2022-11-07T05:01:11.135Z,94.70
2022-11-07T05:03:41.513Z,94.59
2022-11-07T05:06:03.831Z,94.64
2022-11-07T05:08:30.147Z,94.66
2022-11-07T05:10:56.504Z,94.70
2022-11-07T05:13:22.860Z,94.78
2022-11-07T05:15:49.181Z,94.80
2022-11-07T05:18:15.500Z,94.85
2022-11-07T05:20:41.844Z,94.91
2022-11-07T05:23:08.160Z,95.04
2022-11-07T05:25:34.515Z,95.15
2022-11-07T05:28:00.834Z,95.24
2022-11-07T05:30:27.198Z,95.33
2022-11-07T05:32:53.518Z,100.00
2022-11-07T05:35:19.847Z,100.00
2022-11-07T05:37:46.203Z,100.00
2022-11-07T05:40:12.541Z,100.00
2022-11-07T05:42:38.871Z,100.00
2022-11-07T05:45:05.225Z,100.00
2022-11-07T05:47:31.549Z,100.00
2022-11-07T05:49:57.875Z,100.00
2022-11-07T05:52:24.229Z,100.00
2022-11-07T05:54:50.571Z,100.00
2022-11-07T05:57:16.893Z,100.00
2022-11-07T05:59:43.588Z,100.00
2022-11-07T06:02:10.019Z,100.00
2022-11-07T06:04:36.255Z,100.00
2022-11-07T06:07:02.632Z,100.00
2022-11-07T06:09:29.048Z,100.00
2022-11-07T06:11:55.364Z,100.00
2022-11-07T06:14:21.753Z,100.00
2022-11-07T06:16:48.071Z,100.00
2022-11-07T06:19:14.394Z,100.00
2022-11-07T06:21:40.730Z,100.00
2022-11-07T06:24:08.849Z,100.00
2022-11-07T06:26:33.439Z,100.00
2022-11-07T06:28:59.778Z,99.68
2022-11-07T06:31:26.097Z,98.98
2022-11-07T06:33:52.446Z,98.91
2022-11-07T06:36:18.784Z,98.21
2022-11-07T06:38:45.105Z,98.52
2022-11-07T06:41:11.447Z,98.65
2022-11-07T06:43:37.790Z,98.54
2022-11-07T06:46:04.107Z,98.52
2022-11-07T06:48:30.448Z,98.45
2022-11-07T06:50:56.815Z,98.43
2022-11-07T06:53:23.142Z,98.45
2022-11-07T06:55:49.502Z,98.38
2022-11-07T06:58:15.842Z,98.33
2022-11-07T07:00:42.205Z,98.31
2022-11-07T07:03:08.579Z,98.33
2022-11-07T07:05:34.885Z,98.26
2022-11-07T07:08:01.209Z,98.17
2022-11-07T07:10:27.551Z,98.06
2022-11-07T07:12:53.909Z,97.93
2022-11-07T07:15:20.223Z,97.83
2022-11-07T07:17:46.572Z,97.61
2022-11-07T07:20:12.896Z,97.09
2022-11-07T07:22:39.241Z,97.02
2022-11-07T07:25:05.596Z,97.09
2022-11-07T07:27:31.941Z,97.24
2022-11-07T07:29:58.259Z,97.19
2022-11-07T07:32:24.587Z,97.15
2022-11-07T07:34:50.906Z,97.15
2022-11-07T07:37:17.277Z,97.22
2022-11-07T07:39:43.613Z,97.14
2022-11-07T07:42:09.952Z,97.10
2022-11-07T07:44:36.319Z,97.03
2022-11-07T07:47:04.918Z,96.70
2022-11-07T07:49:28.975Z,96.57
2022-11-07T07:51:55.302Z,96.71
2022-11-07T07:54:21.622Z,96.72
2022-11-07T07:56:47.965Z,96.68
2022-11-07T07:59:14.304Z,96.35
2022-11-07T08:01:40.743Z,95.91
2022-11-07T08:04:06.985Z,95.83
2022-11-07T08:06:33.349Z,95.61
2022-11-07T08:08:59.662Z,95.20
2022-11-07T08:11:26.009Z,95.28
2022-11-07T08:13:53.144Z,95.07
2022-11-07T08:16:18.715Z,94.69
2022-11-07T08:18:45.027Z,93.83
2022-11-07T08:21:11.419Z,93.29
2022-11-07T08:23:37.752Z,92.71
2022-11-07T08:26:04.080Z,92.05
2022-11-07T08:28:30.433Z,91.43
2022-11-07T08:30:56.776Z,91.54
2022-11-07T08:33:23.147Z,91.65
2022-11-07T08:35:49.417Z,91.52
2022-11-07T08:38:15.781Z,90.87
2022-11-07T08:40:42.125Z,90.37
2022-11-07T08:43:08.440Z,89.70
2022-11-07T08:45:34.763Z,89.37
2022-11-07T08:48:01.124Z,88.71
2022-11-07T08:50:27.466Z,88.86
2022-11-07T08:52:58.197Z,88.80
2022-11-07T08:55:20.148Z,88.84
2022-11-07T08:57:46.502Z,88.40
2022-11-07T09:00:12.848Z,87.81
2022-11-07T09:03:17.797Z,87.38
2022-11-07T09:05:05.538Z,87.16
2022-11-07T09:07:31.844Z,86.75
2022-11-07T09:09:58.211Z,86.59
2022-11-07T09:12:24.575Z,86.58
2022-11-07T09:14:50.914Z,86.52
2022-11-07T09:17:17.249Z,87.46
2022-11-07T09:19:43.573Z,87.83
2022-11-07T09:22:09.916Z,87.26
2022-11-07T09:24:36.263Z,86.13
2022-11-07T09:27:02.588Z,85.38
2022-11-07T09:29:28.909Z,85.45
2022-11-07T09:31:55.249Z,83.96
2022-11-07T09:34:21.594Z,83.46
2022-11-07T09:36:47.968Z,83.17
2022-11-07T09:39:14.292Z,81.62
2022-11-07T09:41:40.631Z,79.17
2022-11-07T09:44:07.002Z,78.19
2022-11-07T09:46:33.341Z,74.82
2022-11-07T09:48:59.678Z,73.11
2022-11-07T09:51:26.033Z,70.79
2022-11-07T09:53:52.374Z,69.29
2022-11-07T09:56:18.712Z,68.03
2022-11-07T09:58:45.082Z,67.36
2022-11-07T10:01:11.507Z,67.23
2022-11-07T10:03:37.722Z,67.00
2022-11-07T10:06:04.045Z,67.02
2022-11-07T10:08:30.393Z,66.76
2022-11-07T10:10:56.733Z,66.54
2022-11-07T10:13:23.072Z,66.39
2022-11-07T10:15:49.414Z,66.23
2022-11-07T10:18:15.751Z,66.00
2022-11-07T10:20:42.106Z,65.78
2022-11-07T10:23:08.452Z,65.95
2022-11-07T10:25:34.791Z,65.75
2022-11-07T10:28:01.136Z,65.34
2022-11-07T10:30:27.491Z,64.75
2022-11-07T10:32:53.840Z,64.39
2022-11-07T10:35:20.158Z,63.63
2022-11-07T10:37:46.505Z,62.64
2022-11-07T10:40:12.823Z,62.78
2022-11-07T10:42:39.170Z,61.25
2022-11-07T10:45:05.546Z,60.44
2022-11-07T10:47:31.814Z,59.85
2022-11-07T10:49:58.141Z,59.90
2022-11-07T10:52:24.592Z,59.63
2022-11-07T10:54:50.930Z,57.85
2022-11-07T10:57:17.262Z,57.31
2022-11-07T10:59:43.604Z,56.67
2022-11-07T11:02:10.032Z,55.66
2022-11-07T11:04:36.294Z,55.27
2022-11-07T11:07:02.633Z,55.54
2022-11-07T11:09:28.992Z,54.88
2022-11-07T11:11:55.319Z,54.22
2022-11-07T11:14:21.639Z,54.16
2022-11-07T11:16:48.045Z,54.10
2022-11-07T11:19:14.343Z,53.77
2022-11-07T11:21:40.665Z,52.30
2022-11-07T11:24:07.049Z,52.06
2022-11-07T11:26:33.394Z,52.25
2022-11-07T11:28:59.710Z,52.02
2022-11-07T11:31:26.045Z,51.90
2022-11-07T11:33:52.393Z,52.01
2022-11-07T11:36:18.723Z,51.39
2022-11-07T11:38:45.101Z,51.98
2022-11-07T11:41:11.423Z,51.57
2022-11-07T11:43:37.743Z,51.14
2022-11-07T11:46:04.090Z,51.47
2022-11-07T11:48:30.471Z,50.79
2022-11-07T11:50:56.836Z,50.81
2022-11-07T11:53:23.174Z,50.76
2022-11-07T11:55:52.235Z,50.13
2022-11-07T11:58:15.909Z,51.20
2022-11-07T12:00:42.356Z,51.12
2022-11-07T12:03:08.662Z,50.75
2022-11-07T12:05:35.008Z,50.77
2022-11-07T12:08:01.348Z,50.16
2022-11-07T12:10:27.706Z,50.10
2022-11-07T12:12:54.089Z,50.25
2022-11-07T12:15:20.414Z,50.43
2022-11-07T12:17:46.786Z,50.47
2022-11-07T12:20:13.194Z,50.70
2022-11-07T12:22:39.457Z,51.18
2022-11-07T12:25:05.774Z,50.86
2022-11-07T12:27:32.148Z,50.71
2022-11-07T12:29:58.478Z,50.17
2022-11-07T12:32:24.837Z,49.60
2022-11-07T12:34:51.201Z,49.28
2022-11-07T12:37:17.540Z,49.44
2022-11-07T12:39:43.888Z,49.76
2022-11-07T12:42:10.243Z,49.21
2022-11-07T12:44:36.590Z,48.81
2022-11-07T12:47:02.939Z,49.08
2022-11-07T12:49:29.284Z,49.28
2022-11-07T12:51:55.626Z,49.38
2022-11-07T12:54:21.991Z,49.04
2022-11-07T12:56:48.338Z,49.26
2022-11-07T12:59:14.673Z,49.31
2022-11-07T13:01:41.137Z,49.41
2022-11-07T13:04:07.431Z,49.35
2022-11-07T13:06:33.815Z,49.82
2022-11-07T13:09:00.150Z,49.75
2022-11-07T13:11:26.436Z,49.65
2022-11-07T13:13:52.766Z,49.21
2022-11-07T13:16:19.111Z,48.95
2022-11-07T13:18:45.462Z,48.87
2022-11-07T13:21:11.788Z,48.87
2022-11-07T13:23:38.128Z,49.47
2022-11-07T13:26:20.333Z,49.30
2022-11-07T13:28:30.796Z,49.58
2022-11-07T13:30:57.302Z,49.85
2022-11-07T13:33:23.618Z,50.14
2022-11-07T13:35:49.960Z,49.91
2022-11-07T13:38:16.314Z,50.18
2022-11-07T13:40:42.659Z,50.49
2022-11-07T13:43:08.998Z,50.29
2022-11-07T13:45:35.333Z,50.68
2022-11-07T13:48:01.674Z,50.56
2022-11-07T13:50:28.020Z,50.78
2022-11-07T13:52:54.340Z,50.76
2022-11-07T13:55:20.675Z,51.22
2022-11-07T13:57:47.012Z,51.46
2022-11-07T14:00:13.438Z,51.67
2022-11-07T14:02:39.777Z,51.73
2022-11-07T14:05:21.544Z,51.76
2022-11-07T14:07:32.460Z,52.30
2022-11-07T14:09:58.821Z,52.11
2022-11-07T14:12:25.157Z,52.67
2022-11-07T14:14:51.524Z,53.07
2022-11-07T14:17:17.847Z,53.06
2022-11-07T14:19:44.240Z,53.00
2022-11-07T14:22:14.644Z,53.03
2022-11-07T14:24:36.880Z,53.53
2022-11-07T14:27:03.261Z,54.15
2022-11-07T14:29:29.593Z,54.03
2022-11-07T14:31:55.941Z,54.15
2022-11-07T14:34:22.393Z,54.55
2022-11-07T14:36:49.134Z,54.48
2022-11-07T14:39:15.900Z,54.76
2022-11-07T14:41:41.756Z,55.03
2022-11-07T14:44:08.089Z,55.18
2022-11-07T14:46:34.409Z,55.31
2022-11-07T14:49:00.770Z,55.36
2022-11-07T14:51:27.127Z,55.64
2022-11-07T14:53:53.527Z,55.84
2022-11-07T14:56:19.852Z,55.69
2022-11-07T14:58:46.225Z,56.12
2022-11-07T15:01:12.610Z,56.33
2022-11-07T15:03:38.904Z,56.26
2022-11-07T15:06:05.219Z,56.67
2022-11-07T15:08:31.635Z,56.82
2022-11-07T15:10:57.931Z,56.83
2022-11-07T15:13:26.175Z,57.20
2022-11-07T15:15:52.557Z,57.37
2022-11-07T15:18:19.118Z,57.64
2022-11-07T15:20:45.218Z,58.31
2022-11-07T15:23:11.552Z,58.47
2022-11-07T15:25:37.903Z,58.86
2022-11-07T15:28:04.261Z,58.96
2022-11-07T15:30:30.620Z,59.09
2022-11-07T15:32:56.968Z,59.54
2022-11-07T15:35:42.929Z,59.72
2022-11-07T15:37:49.661Z,60.89
2022-11-07T15:40:15.995Z,61.06
2022-11-07T15:42:42.400Z,61.05
2022-11-07T15:45:08.740Z,60.81
2022-11-07T15:47:35.086Z,60.96
2022-11-07T15:50:01.407Z,60.88
2022-11-07T15:52:27.747Z,61.05
2022-11-07T15:54:54.064Z,61.21
2022-11-07T15:57:20.408Z,61.12
2022-11-07T15:59:46.778Z,61.12
2022-11-07T16:02:13.262Z,61.56
2022-11-07T16:04:39.972Z,61.54
2022-11-07T16:07:05.851Z,61.73
2022-11-07T16:09:32.197Z,61.72
2022-11-07T16:11:58.526Z,61.83
2022-11-07T16:16:51.207Z,62.11
2022-11-07T16:19:17.552Z,62.07
2022-11-07T16:21:43.914Z,62.25
2022-11-07T16:24:10.270Z,62.33
2022-11-07T16:26:36.686Z,62.45
2022-11-07T16:29:03.037Z,62.58
2022-11-07T16:31:29.383Z,62.71
2022-11-07T16:33:55.769Z,62.80
2022-11-07T16:36:22.062Z,63.09
2022-11-07T16:38:48.381Z,63.18
2022-11-07T16:41:14.736Z,63.29
2022-11-07T16:43:41.049Z,63.38
2022-11-07T16:46:07.384Z,63.61
2022-11-07T16:48:33.742Z,63.69
2022-11-07T16:51:00.098Z,63.97
2022-11-07T16:53:26.429Z,63.99
2022-11-07T16:55:54.014Z,64.12
2022-11-07T16:58:19.128Z,64.21
2022-11-07T17:00:45.466Z,64.33
2022-11-07T17:03:11.810Z,64.63
2022-11-07T17:05:38.115Z,64.90
2022-11-07T17:08:04.461Z,64.93
2022-11-07T17:10:30.847Z,64.91
2022-11-07T17:12:57.179Z,65.23
2022-11-07T17:15:23.524Z,65.31
2022-11-07T17:17:49.881Z,65.24
2022-11-07T17:20:28.453Z,65.55
2022-11-07T17:22:42.570Z,65.74
2022-11-07T17:25:08.895Z,65.48
2022-11-07T17:27:35.237Z,65.58
2022-11-07T17:30:05.898Z,65.76
2022-11-07T17:32:27.907Z,66.03
2022-11-07T17:35:18.127Z,66.23
2022-11-07T17:37:20.644Z,66.23
2022-11-07T17:39:47.032Z,66.27
2022-11-07T17:42:13.371Z,66.39
2022-11-07T17:44:39.725Z,66.66
2022-11-07T17:47:06.066Z,66.68
2022-11-07T17:49:32.416Z,66.83
2022-11-07T17:51:58.741Z,67.01
2022-11-07T17:54:29.347Z,67.23
2022-11-07T17:56:51.446Z,67.44
2022-11-07T17:59:17.769Z,67.61
2022-11-07T18:01:44.184Z,67.78
2022-11-07T18:04:10.446Z,67.88
2022-11-07T18:06:36.889Z,68.03
2022-11-07T18:09:03.260Z,68.18
2022-11-07T18:11:29.614Z,68.27
2022-11-07T18:13:55.996Z,68.10
2022-11-07T18:16:22.317Z,68.19
2022-11-07T18:18:48.676Z,68.39
2022-11-07T18:21:15.048Z,68.37
2022-11-07T18:23:41.373Z,68.98
2022-11-07T18:26:07.695Z,69.25
2022-11-07T18:28:34.132Z,69.27
2022-11-07T18:31:00.530Z,69.38
2022-11-07T18:33:26.986Z,69.50
2022-11-07T18:35:53.330Z,69.55
2022-11-07T18:38:19.742Z,69.52
2022-11-07T18:40:46.194Z,69.63
2022-11-07T18:43:12.533Z,69.59
2022-11-07T18:45:38.879Z,69.77
2022-11-07T18:48:05.243Z,69.73
2022-11-07T18:50:31.576Z,69.92
2022-11-07T18:52:57.906Z,70.17
2022-11-07T18:55:27.479Z,70.38
2022-11-07T18:57:50.654Z,70.71
2022-11-07T19:00:16.953Z,70.80
2022-11-07T19:02:43.289Z,71.10
2022-11-07T19:05:09.615Z,73.16
2022-11-07T19:07:35.945Z,73.42
2022-11-07T19:10:02.301Z,73.33
2022-11-07T19:12:28.741Z,73.11
2022-11-07T19:14:55.028Z,73.00
2022-11-07T19:17:21.671Z,73.13
2022-11-07T19:19:47.989Z,73.07
2022-11-07T19:22:14.377Z,73.14
2022-11-07T19:24:40.721Z,72.83
2022-11-07T19:27:07.065Z,73.17
2022-11-07T19:29:33.429Z,73.28
2022-11-07T19:31:59.748Z,73.73
2022-11-07T19:34:26.095Z,73.77
2022-11-07T19:36:52.449Z,73.70
2022-11-07T19:39:18.802Z,73.84
2022-11-07T19:41:45.189Z,73.87
2022-11-07T19:44:11.504Z,73.87
2022-11-07T19:46:37.830Z,74.02
2022-11-07T19:49:04.182Z,74.00
2022-11-07T19:51:30.507Z,74.06
2022-11-07T19:53:56.859Z,74.33
2022-11-07T19:56:23.221Z,74.36
2022-11-07T19:58:49.559Z,74.69
2022-11-07T20:01:15.930Z,74.57
2022-11-07T20:03:42.234Z,74.73
2022-11-07T20:06:08.627Z,74.73
2022-11-07T20:08:34.953Z,75.00
2022-11-07T20:11:01.398Z,74.94
2022-11-07T20:13:27.764Z,74.94
2022-11-07T20:15:54.090Z,74.98
2022-11-07T20:18:20.413Z,74.85
2022-11-07T20:20:46.746Z,75.04
2022-11-07T20:23:13.090Z,75.16
2022-11-07T20:25:39.427Z,75.36
2022-11-07T20:28:05.801Z,75.07
2022-11-07T20:30:32.160Z,74.98
2022-11-07T20:32:58.508Z,75.01
2022-11-07T20:35:24.876Z,75.12
2022-11-07T20:37:51.227Z,75.34
2022-11-07T20:40:17.621Z,75.57
2022-11-07T20:42:44.001Z,75.66
2022-11-07T20:45:10.326Z,75.88
2022-11-07T20:47:36.735Z,75.91
2022-11-07T20:50:03.219Z,76.04
2022-11-07T20:52:29.609Z,76.10
2022-11-07T20:54:55.963Z,76.14
2022-11-07T20:57:22.343Z,76.04
2022-11-07T20:59:48.640Z,76.07
2022-11-07T21:02:15.021Z,76.19
2022-11-07T21:05:03.336Z,76.08
2022-11-07T21:07:07.692Z,76.09
2022-11-07T21:09:34.151Z,76.21
2022-11-07T21:12:00.518Z,76.23
2022-11-07T21:14:26.821Z,76.30
2022-11-07T21:16:53.210Z,76.40
2022-11-07T21:19:19.543Z,76.33
2022-11-07T21:21:45.859Z,76.53
2022-11-07T21:24:12.193Z,76.46
2022-11-07T21:26:38.549Z,76.54
2022-11-07T21:29:04.893Z,76.64
2022-11-07T21:31:31.230Z,76.81
2022-11-07T21:33:57.586Z,76.87
2022-11-07T21:36:23.915Z,77.00
2022-11-07T21:38:50.311Z,77.04
2022-11-07T21:41:16.620Z,76.99
2022-11-07T21:43:42.950Z,77.06
2022-11-07T21:46:09.351Z,77.16
2022-11-07T21:48:35.665Z,77.34
2022-11-07T21:51:01.984Z,77.45
2022-11-07T21:53:28.353Z,77.48
2022-11-07T21:55:54.679Z,77.52
2022-11-07T21:58:21.004Z,77.59
2022-11-07T22:00:47.337Z,77.53
2022-11-07T22:03:13.796Z,77.50
2022-11-07T22:05:39.996Z,77.56
2022-11-07T22:08:06.402Z,77.54
2022-11-07T22:10:32.720Z,77.56
2022-11-07T22:12:59.091Z,77.37
2022-11-07T22:15:25.368Z,77.60
2022-11-07T22:17:51.713Z,77.73
2022-11-07T22:20:18.062Z,77.66
2022-11-07T22:22:44.387Z,77.69
2022-11-07T22:25:10.729Z,77.81
2022-11-07T22:27:37.090Z,77.86
2022-11-07T22:30:03.415Z,77.98
2022-11-07T22:32:29.756Z,78.03
2022-11-07T22:34:56.084Z,78.05
2022-11-07T22:37:22.431Z,78.05
2022-11-07T22:39:48.752Z,78.08
2022-11-07T22:42:18.515Z,78.05
2022-11-07T22:44:41.475Z,78.05
2022-11-07T22:47:07.802Z,78.00
2022-11-07T22:49:34.143Z,78.04
2022-11-07T22:52:00.522Z,77.95
2022-11-07T22:54:26.835Z,78.14
2022-11-07T22:56:53.166Z,78.23
2022-11-07T22:59:19.511Z,78.35
2022-11-07T23:01:45.913Z,78.49
2022-11-07T23:04:12.206Z,78.41
2022-11-07T23:06:38.540Z,78.15
2022-11-07T23:09:04.896Z,78.12
2022-11-07T23:11:48.374Z,78.24
2022-11-07T23:13:57.572Z,78.17
2022-11-07T23:16:25.770Z,78.16
2022-11-07T23:18:50.327Z,78.13
2022-11-07T23:21:16.650Z,78.24
2022-11-07T23:23:42.992Z,78.09
2022-11-07T23:26:09.377Z,78.14
2022-11-07T23:28:35.727Z,78.19
2022-11-07T23:31:02.076Z,78.14
2022-11-07T23:33:28.426Z,78.12
2022-11-07T23:35:54.775Z,78.17
2022-11-07T23:38:21.101Z,78.06
2022-11-07T23:40:47.426Z,77.98
2022-11-07T23:43:13.766Z,78.59
2022-11-07T23:45:40.099Z,78.90
2022-11-07T23:48:06.419Z,78.98
2022-11-07T23:50:32.763Z,78.94
2022-11-07T23:52:59.132Z,78.93
2022-11-07T23:55:25.479Z,79.01
2022-11-07T23:57:51.821Z,79.17
